sensor_id;sensor_type;location;lat;lon;timestamp;temperature;humidity
16347;DHT22;8283;48.504;13.734;2023-05-07T00:01:00;17.50;56.30
16347;DHT22;8283;48.504;13.734;2023-05-07T00:03:44;17.40;56.30
16347;DHT22;8283;48.504;13.734;2023-05-07T00:06:31;17.40;56.40
16347;DHT22;8283;48.504;13.734;2023-05-07T00:09:16;17.40;57.20
16347;DHT22;8283;48.504;13.734;2023-05-07T00:12:01;17.40;56.60
16347;DHT22;8283;48.504;13.734;2023-05-07T00:14:45;17.30;56.60
16347;DHT22;8283;48.504;13.734;2023-05-07T00:17:31;17.30;56.70
16347;DHT22;8283;48.504;13.734;2023-05-07T00:20:16;17.30;57.00
16347;DHT22;8283;48.504;13.734;2023-05-07T00:23:01;17.30;57.30
16347;DHT22;8283;48.504;13.734;2023-05-07T00:25:45;17.20;57.10
16347;DHT22;8283;48.504;13.734;2023-05-07T00:28:30;17.10;57.10
16347;DHT22;8283;48.504;13.734;2023-05-07T00:31:14;17.10;57.20
16347;DHT22;8283;48.504;13.734;2023-05-07T00:33:58;17.20;57.40
16347;DHT22;8283;48.504;13.734;2023-05-07T00:36:42;17.10;57.40
16347;DHT22;8283;48.504;13.734;2023-05-07T00:39:27;17.10;57.40
16347;DHT22;8283;48.504;13.734;2023-05-07T00:42:11;17.00;57.40
16347;DHT22;8283;48.504;13.734;2023-05-07T00:44:56;17.00;57.40
16347;DHT22;8283;48.504;13.734;2023-05-07T00:47:41;17.10;57.60
16347;DHT22;8283;48.504;13.734;2023-05-07T00:50:27;17.00;57.70
16347;DHT22;8283;48.504;13.734;2023-05-07T00:53:13;17.00;57.70
16347;DHT22;8283;48.504;13.734;2023-05-07T00:55:57;16.90;57.60
16347;DHT22;8283;48.504;13.734;2023-05-07T00:58:41;16.90;57.60
16347;DHT22;8283;48.504;13.734;2023-05-07T01:01:27;16.90;57.70
16347;DHT22;8283;48.504;13.734;2023-05-07T01:04:12;16.90;57.90
16347;DHT22;8283;48.504;13.734;2023-05-07T01:06:58;17.00;57.90
16347;DHT22;8283;48.504;13.734;2023-05-07T01:09:43;16.80;58.10
16347;DHT22;8283;48.504;13.734;2023-05-07T01:12:29;16.80;58.40
16347;DHT22;8283;48.504;13.734;2023-05-07T01:15:15;16.90;58.10
16347;DHT22;8283;48.504;13.734;2023-05-07T01:17:59;16.80;58.00
16347;DHT22;8283;48.504;13.734;2023-05-07T01:20:51;16.80;58.00
16347;DHT22;8283;48.504;13.734;2023-05-07T01:23:36;16.70;58.00
16347;DHT22;8283;48.504;13.734;2023-05-07T01:26:20;16.80;58.10
16347;DHT22;8283;48.504;13.734;2023-05-07T01:29:06;16.70;58.10
16347;DHT22;8283;48.504;13.734;2023-05-07T01:31:52;16.70;58.20
16347;DHT22;8283;48.504;13.734;2023-05-07T01:34:37;16.70;58.50
16347;DHT22;8283;48.504;13.734;2023-05-07T01:37:23;16.60;58.40
16347;DHT22;8283;48.504;13.734;2023-05-07T01:40:09;16.60;58.40
16347;DHT22;8283;48.504;13.734;2023-05-07T01:42:54;16.60;58.50
16347;DHT22;8283;48.504;13.734;2023-05-07T01:45:38;16.50;58.60
16347;DHT22;8283;48.504;13.734;2023-05-07T01:48:24;16.60;58.60
16347;DHT22;8283;48.504;13.734;2023-05-07T01:51:09;16.50;58.70
16347;DHT22;8283;48.504;13.734;2023-05-07T01:53:54;16.60;58.60
16347;DHT22;8283;48.504;13.734;2023-05-07T01:56:38;16.50;58.70
16347;DHT22;8283;48.504;13.734;2023-05-07T01:59:23;16.50;58.70
16347;DHT22;8283;48.504;13.734;2023-05-07T02:02:07;16.40;58.70
16347;DHT22;8283;48.504;13.734;2023-05-07T02:04:52;16.40;58.80
16347;DHT22;8283;48.504;13.734;2023-05-07T02:07:38;16.50;58.90
16347;DHT22;8283;48.504;13.734;2023-05-07T02:10:22;16.50;58.90
16347;DHT22;8283;48.504;13.734;2023-05-07T02:13:07;16.30;58.90
16347;DHT22;8283;48.504;13.734;2023-05-07T02:15:52;16.40;58.90
16347;DHT22;8283;48.504;13.734;2023-05-07T02:18:38;16.40;59.20
16347;DHT22;8283;48.504;13.734;2023-05-07T02:21:23;16.30;59.00
16347;DHT22;8283;48.504;13.734;2023-05-07T02:24:07;16.40;59.20
16347;DHT22;8283;48.504;13.734;2023-05-07T02:26:52;16.30;59.10
16347;DHT22;8283;48.504;13.734;2023-05-07T02:29:37;16.50;59.30
16347;DHT22;8283;48.504;13.734;2023-05-07T02:32:22;16.30;59.20
16347;DHT22;8283;48.504;13.734;2023-05-07T02:35:08;16.30;59.50
16347;DHT22;8283;48.504;13.734;2023-05-07T02:37:54;16.30;59.50
16347;DHT22;8283;48.504;13.734;2023-05-07T02:40:40;16.30;59.50
16347;DHT22;8283;48.504;13.734;2023-05-07T02:43:24;16.20;59.50
16347;DHT22;8283;48.504;13.734;2023-05-07T02:46:10;16.20;59.30
16347;DHT22;8283;48.504;13.734;2023-05-07T02:48:58;16.40;59.60
16347;DHT22;8283;48.504;13.734;2023-05-07T02:51:42;16.20;59.40
16347;DHT22;8283;48.504;13.734;2023-05-07T02:54:33;16.20;59.50
16347;DHT22;8283;48.504;13.734;2023-05-07T02:57:17;16.20;59.50
16347;DHT22;8283;48.504;13.734;2023-05-07T03:00:13;16.40;59.70
16347;DHT22;8283;48.504;13.734;2023-05-07T03:03:01;16.20;61.00
16347;DHT22;8283;48.504;13.734;2023-05-07T03:05:46;16.20;59.70
16347;DHT22;8283;48.504;13.734;2023-05-07T03:08:31;16.20;59.80
16347;DHT22;8283;48.504;13.734;2023-05-07T03:11:16;16.20;59.80
16347;DHT22;8283;48.504;13.734;2023-05-07T03:14:00;16.10;59.90
16347;DHT22;8283;48.504;13.734;2023-05-07T03:16:45;16.10;59.80
16347;DHT22;8283;48.504;13.734;2023-05-07T03:19:30;16.10;59.80
16347;DHT22;8283;48.504;13.734;2023-05-07T03:22:14;16.10;59.80
16347;DHT22;8283;48.504;13.734;2023-05-07T03:24:59;16.10;59.90
16347;DHT22;8283;48.504;13.734;2023-05-07T03:27:44;16.20;60.00
16347;DHT22;8283;48.504;13.734;2023-05-07T03:30:28;16.20;60.10
16347;DHT22;8283;48.504;13.734;2023-05-07T03:33:13;16.10;60.10
16347;DHT22;8283;48.504;13.734;2023-05-07T03:35:58;16.10;60.10
16347;DHT22;8283;48.504;13.734;2023-05-07T03:38:44;16.20;60.30
16347;DHT22;8283;48.504;13.734;2023-05-07T03:41:28;16.10;60.20
16347;DHT22;8283;48.504;13.734;2023-05-07T03:44:14;16.10;60.20
16347;DHT22;8283;48.504;13.734;2023-05-07T03:46:59;16.10;60.30
16347;DHT22;8283;48.504;13.734;2023-05-07T03:49:44;16.10;60.40
16347;DHT22;8283;48.504;13.734;2023-05-07T03:52:29;16.10;60.50
16347;DHT22;8283;48.504;13.734;2023-05-07T03:55:17;16.10;60.60
16347;DHT22;8283;48.504;13.734;2023-05-07T03:58:07;16.10;60.70
16347;DHT22;8283;48.504;13.734;2023-05-07T04:00:51;16.10;60.70
16347;DHT22;8283;48.504;13.734;2023-05-07T04:03:43;16.10;60.70
16347;DHT22;8283;48.504;13.734;2023-05-07T04:06:28;16.10;60.90
16347;DHT22;8283;48.504;13.734;2023-05-07T04:09:14;16.10;60.80
16347;DHT22;8283;48.504;13.734;2023-05-07T04:11:58;16.20;61.30
16347;DHT22;8283;48.504;13.734;2023-05-07T04:14:44;16.10;61.00
16347;DHT22;8283;48.504;13.734;2023-05-07T04:17:28;16.20;61.10
16347;DHT22;8283;48.504;13.734;2023-05-07T04:20:15;16.20;61.20
16347;DHT22;8283;48.504;13.734;2023-05-07T04:23:00;16.20;61.50
16347;DHT22;8283;48.504;13.734;2023-05-07T04:25:44;16.30;61.40
16347;DHT22;8283;48.504;13.734;2023-05-07T04:28:56;16.20;61.40
16347;DHT22;8283;48.504;13.734;2023-05-07T04:31:42;16.30;62.10
16347;DHT22;8283;48.504;13.734;2023-05-07T04:34:28;16.40;61.50
16347;DHT22;8283;48.504;13.734;2023-05-07T04:37:13;16.40;61.70
16347;DHT22;8283;48.504;13.734;2023-05-07T04:39:59;16.30;61.50
16347;DHT22;8283;48.504;13.734;2023-05-07T04:42:44;16.40;61.90
16347;DHT22;8283;48.504;13.734;2023-05-07T04:45:30;16.40;61.80
16347;DHT22;8283;48.504;13.734;2023-05-07T04:48:14;16.50;62.00
16347;DHT22;8283;48.504;13.734;2023-05-07T04:51:00;16.50;62.00
16347;DHT22;8283;48.504;13.734;2023-05-07T04:53:46;16.50;62.00
16347;DHT22;8283;48.504;13.734;2023-05-07T04:56:31;16.50;62.40
16347;DHT22;8283;48.504;13.734;2023-05-07T04:59:17;16.60;62.50
16347;DHT22;8283;48.504;13.734;2023-05-07T05:02:02;16.60;62.50
16347;DHT22;8283;48.504;13.734;2023-05-07T05:04:49;16.70;62.50
16347;DHT22;8283;48.504;13.734;2023-05-07T05:07:33;16.70;62.40
16347;DHT22;8283;48.504;13.734;2023-05-07T05:10:18;16.80;62.60
16347;DHT22;8283;48.504;13.734;2023-05-07T05:13:04;17.00;62.70
16347;DHT22;8283;48.504;13.734;2023-05-07T05:15:50;17.00;62.70
16347;DHT22;8283;48.504;13.734;2023-05-07T05:18:35;17.00;62.70
16347;DHT22;8283;48.504;13.734;2023-05-07T05:21:20;17.00;62.50
16347;DHT22;8283;48.504;13.734;2023-05-07T05:24:07;17.10;62.70
16347;DHT22;8283;48.504;13.734;2023-05-07T05:26:56;17.00;62.50
16347;DHT22;8283;48.504;13.734;2023-05-07T05:29:41;17.20;63.20
16347;DHT22;8283;48.504;13.734;2023-05-07T05:32:26;17.20;62.50
16347;DHT22;8283;48.504;13.734;2023-05-07T05:35:13;17.10;62.30
16347;DHT22;8283;48.504;13.734;2023-05-07T05:37:59;17.20;62.30
16347;DHT22;8283;48.504;13.734;2023-05-07T05:40:44;17.20;62.50
16347;DHT22;8283;48.504;13.734;2023-05-07T05:43:28;17.20;62.50
16347;DHT22;8283;48.504;13.734;2023-05-07T05:46:13;17.20;63.00
16347;DHT22;8283;48.504;13.734;2023-05-07T05:48:58;17.30;63.30
16347;DHT22;8283;48.504;13.734;2023-05-07T05:51:45;17.30;63.50
16347;DHT22;8283;48.504;13.734;2023-05-07T05:54:35;17.50;63.90
16347;DHT22;8283;48.504;13.734;2023-05-07T05:57:20;17.50;64.60
16347;DHT22;8283;48.504;13.734;2023-05-07T06:00:05;17.70;64.10
16347;DHT22;8283;48.504;13.734;2023-05-07T06:03:07;17.80;64.30
16347;DHT22;8283;48.504;13.734;2023-05-07T06:05:53;17.90;65.00
16347;DHT22;8283;48.504;13.734;2023-05-07T06:08:40;18.10;64.60
16347;DHT22;8283;48.504;13.734;2023-05-07T06:11:24;18.20;64.80
16347;DHT22;8283;48.504;13.734;2023-05-07T06:14:10;18.30;64.70
16347;DHT22;8283;48.504;13.734;2023-05-07T06:16:56;18.60;64.70
16347;DHT22;8283;48.504;13.734;2023-05-07T06:19:40;18.90;65.00
16347;DHT22;8283;48.504;13.734;2023-05-07T06:22:26;19.00;64.90
16347;DHT22;8283;48.504;13.734;2023-05-07T06:25:11;19.20;64.70
16347;DHT22;8283;48.504;13.734;2023-05-07T06:27:56;19.30;64.70
16347;DHT22;8283;48.504;13.734;2023-05-07T06:30:42;19.60;64.70
16347;DHT22;8283;48.504;13.734;2023-05-07T06:33:28;19.60;64.60
16347;DHT22;8283;48.504;13.734;2023-05-07T06:36:12;19.80;64.40
16347;DHT22;8283;48.504;13.734;2023-05-07T06:38:57;20.10;64.50
16347;DHT22;8283;48.504;13.734;2023-05-07T06:41:42;20.10;64.50
16347;DHT22;8283;48.504;13.734;2023-05-07T06:44:34;20.40;64.60
16347;DHT22;8283;48.504;13.734;2023-05-07T06:47:30;20.50;64.70
16347;DHT22;8283;48.504;13.734;2023-05-07T06:50:14;20.60;64.70
16347;DHT22;8283;48.504;13.734;2023-05-07T06:53:02;21.00;64.90
16347;DHT22;8283;48.504;13.734;2023-05-07T06:55:46;21.10;64.90
16347;DHT22;8283;48.504;13.734;2023-05-07T06:58:32;21.50;64.90
16347;DHT22;8283;48.504;13.734;2023-05-07T07:01:17;21.60;64.40
16347;DHT22;8283;48.504;13.734;2023-05-07T07:04:03;21.90;64.30
16347;DHT22;8283;48.504;13.734;2023-05-07T07:06:48;22.00;64.20
16347;DHT22;8283;48.504;13.734;2023-05-07T07:09:33;22.30;64.10
16347;DHT22;8283;48.504;13.734;2023-05-07T07:12:19;22.50;64.00
16347;DHT22;8283;48.504;13.734;2023-05-07T07:15:03;22.70;63.90
16347;DHT22;8283;48.504;13.734;2023-05-07T07:17:50;22.90;63.80
16347;DHT22;8283;48.504;13.734;2023-05-07T07:20:34;23.10;63.50
16347;DHT22;8283;48.504;13.734;2023-05-07T07:23:21;23.40;63.20
16347;DHT22;8283;48.504;13.734;2023-05-07T07:26:09;23.60;63.10
16347;DHT22;8283;48.504;13.734;2023-05-07T07:28:54;23.80;62.40
16347;DHT22;8283;48.504;13.734;2023-05-07T07:31:43;24.10;63.00
16347;DHT22;8283;48.504;13.734;2023-05-07T07:34:28;24.30;62.60
16347;DHT22;8283;48.504;13.734;2023-05-07T07:37:12;24.60;62.70
16347;DHT22;8283;48.504;13.734;2023-05-07T07:39:57;24.90;62.60
16347;DHT22;8283;48.504;13.734;2023-05-07T07:42:42;25.20;62.60
16347;DHT22;8283;48.504;13.734;2023-05-07T07:45:27;25.40;62.20
16347;DHT22;8283;48.504;13.734;2023-05-07T07:48:11;25.70;61.90
16347;DHT22;8283;48.504;13.734;2023-05-07T07:50:56;26.00;61.60
16347;DHT22;8283;48.504;13.734;2023-05-07T07:53:41;26.30;61.50
16347;DHT22;8283;48.504;13.734;2023-05-07T07:56:25;26.60;61.20
16347;DHT22;8283;48.504;13.734;2023-05-07T07:59:11;26.90;61.00
16347;DHT22;8283;48.504;13.734;2023-05-07T08:01:59;27.20;60.00
16347;DHT22;8283;48.504;13.734;2023-05-07T08:04:46;27.50;60.10
16347;DHT22;8283;48.504;13.734;2023-05-07T08:07:30;27.70;59.40
16347;DHT22;8283;48.504;13.734;2023-05-07T08:10:15;28.00;59.20
16347;DHT22;8283;48.504;13.734;2023-05-07T08:13:05;28.20;58.90
16347;DHT22;8283;48.504;13.734;2023-05-07T08:15:51;28.50;58.00
16347;DHT22;8283;48.504;13.734;2023-05-07T08:18:38;28.70;58.80
16347;DHT22;8283;48.504;13.734;2023-05-07T08:21:23;28.90;58.00
16347;DHT22;8283;48.504;13.734;2023-05-07T08:24:08;29.10;58.10
16347;DHT22;8283;48.504;13.734;2023-05-07T08:26:53;29.30;57.80
16347;DHT22;8283;48.504;13.734;2023-05-07T08:29:38;29.50;57.60
16347;DHT22;8283;48.504;13.734;2023-05-07T08:32:27;29.70;57.00
16347;DHT22;8283;48.504;13.734;2023-05-07T08:35:14;29.90;56.00
16347;DHT22;8283;48.504;13.734;2023-05-07T08:37:59;30.10;55.90
16347;DHT22;8283;48.504;13.734;2023-05-07T08:40:45;30.40;56.50
16347;DHT22;8283;48.504;13.734;2023-05-07T08:43:36;30.60;56.00
16347;DHT22;8283;48.504;13.734;2023-05-07T08:46:22;30.80;55.60
16347;DHT22;8283;48.504;13.734;2023-05-07T08:49:12;31.00;55.50
16347;DHT22;8283;48.504;13.734;2023-05-07T08:51:57;31.20;55.10
16347;DHT22;8283;48.504;13.734;2023-05-07T08:54:46;31.40;55.20
16347;DHT22;8283;48.504;13.734;2023-05-07T08:57:31;31.60;53.70
16347;DHT22;8283;48.504;13.734;2023-05-07T09:00:17;31.70;53.90
16347;DHT22;8283;48.504;13.734;2023-05-07T09:03:05;31.90;53.60
16347;DHT22;8283;48.504;13.734;2023-05-07T09:05:51;32.00;53.50
16347;DHT22;8283;48.504;13.734;2023-05-07T09:08:37;32.20;53.00
16347;DHT22;8283;48.504;13.734;2023-05-07T09:11:24;32.30;52.90
16347;DHT22;8283;48.504;13.734;2023-05-07T09:14:10;32.50;52.60
16347;DHT22;8283;48.504;13.734;2023-05-07T09:16:58;32.70;52.60
16347;DHT22;8283;48.504;13.734;2023-05-07T09:19:46;32.90;52.40
16347;DHT22;8283;48.504;13.734;2023-05-07T09:22:38;33.10;51.00
16347;DHT22;8283;48.504;13.734;2023-05-07T09:25:33;33.30;50.90
16347;DHT22;8283;48.504;13.734;2023-05-07T09:28:26;33.50;50.30
16347;DHT22;8283;48.504;13.734;2023-05-07T09:31:11;33.70;50.20
16347;DHT22;8283;48.504;13.734;2023-05-07T09:33:56;34.00;50.70
16347;DHT22;8283;48.504;13.734;2023-05-07T09:36:45;34.20;50.20
16347;DHT22;8283;48.504;13.734;2023-05-07T09:39:45;34.40;49.70
16347;DHT22;8283;48.504;13.734;2023-05-07T09:42:40;34.50;48.20
16347;DHT22;8283;48.504;13.734;2023-05-07T09:45:26;34.70;48.70
16347;DHT22;8283;48.504;13.734;2023-05-07T09:48:11;34.90;48.50
16347;DHT22;8283;48.504;13.734;2023-05-07T09:51:01;34.90;48.10
16347;DHT22;8283;48.504;13.734;2023-05-07T09:53:50;35.00;46.90
16347;DHT22;8283;48.504;13.734;2023-05-07T09:56:36;35.00;46.80
16347;DHT22;8283;48.504;13.734;2023-05-07T09:59:22;34.90;46.40
16347;DHT22;8283;48.504;13.734;2023-05-07T10:02:10;34.70;45.80
16347;DHT22;8283;48.504;13.734;2023-05-07T10:05:03;34.50;45.00
16347;DHT22;8283;48.504;13.734;2023-05-07T10:07:51;34.20;45.10
16347;DHT22;8283;48.504;13.734;2023-05-07T10:10:38;33.90;44.70
16347;DHT22;8283;48.504;13.734;2023-05-07T10:13:27;33.70;45.10
16347;DHT22;8283;48.504;13.734;2023-05-07T10:16:14;33.50;45.90
16347;DHT22;8283;48.504;13.734;2023-05-07T10:19:04;33.50;46.40
16347;DHT22;8283;48.504;13.734;2023-05-07T10:21:54;33.50;46.60
16347;DHT22;8283;48.504;13.734;2023-05-07T10:24:42;33.70;46.00
16347;DHT22;8283;48.504;13.734;2023-05-07T10:27:33;33.90;47.00
16347;DHT22;8283;48.504;13.734;2023-05-07T10:30:32;34.20;47.10
16347;DHT22;8283;48.504;13.734;2023-05-07T10:33:24;34.40;45.50
16347;DHT22;8283;48.504;13.734;2023-05-07T10:36:11;34.50;45.60
16347;DHT22;8283;48.504;13.734;2023-05-07T10:38:56;34.60;44.90
16347;DHT22;8283;48.504;13.734;2023-05-07T10:41:40;34.50;44.80
16347;DHT22;8283;48.504;13.734;2023-05-07T10:44:28;34.50;45.00
16347;DHT22;8283;48.504;13.734;2023-05-07T10:47:16;34.50;45.00
16347;DHT22;8283;48.504;13.734;2023-05-07T11:02:14;34.30;42.60
16347;DHT22;8283;48.504;13.734;2023-05-07T11:05:23;34.00;42.90
16347;DHT22;8283;48.504;13.734;2023-05-07T11:08:19;33.60;42.70
16347;DHT22;8283;48.504;13.734;2023-05-07T11:11:15;33.30;43.00
16347;DHT22;8283;48.504;13.734;2023-05-07T11:14:05;33.00;42.90
16347;DHT22;8283;48.504;13.734;2023-05-07T11:17:03;32.70;43.10
16347;DHT22;8283;48.504;13.734;2023-05-07T11:19:54;32.40;43.20
16347;DHT22;8283;48.504;13.734;2023-05-07T11:22:49;32.20;43.40
16347;DHT22;8283;48.504;13.734;2023-05-07T11:25:50;32.20;44.60
16347;DHT22;8283;48.504;13.734;2023-05-07T11:28:43;32.30;45.00
16347;DHT22;8283;48.504;13.734;2023-05-07T11:31:28;32.50;44.80
16347;DHT22;8283;48.504;13.734;2023-05-07T11:34:22;32.60;44.50
16347;DHT22;8283;48.504;13.734;2023-05-07T11:37:08;32.80;44.20
16347;DHT22;8283;48.504;13.734;2023-05-07T11:40:16;32.80;44.80
16347;DHT22;8283;48.504;13.734;2023-05-07T11:43:10;33.00;45.30
16347;DHT22;8283;48.504;13.734;2023-05-07T11:46:11;33.20;44.70
16347;DHT22;8283;48.504;13.734;2023-05-07T11:48:57;33.50;44.70
16347;DHT22;8283;48.504;13.734;2023-05-07T11:51:41;33.70;44.60
16347;DHT22;8283;48.504;13.734;2023-05-07T11:54:35;33.90;44.80
16347;DHT22;8283;48.504;13.734;2023-05-07T11:57:20;34.00;44.00
16347;DHT22;8283;48.504;13.734;2023-05-07T12:00:05;34.20;44.60
16347;DHT22;8283;48.504;13.734;2023-05-07T12:03:06;34.40;44.20
16347;DHT22;8283;48.504;13.734;2023-05-07T12:05:50;34.50;43.20
16347;DHT22;8283;48.504;13.734;2023-05-07T12:08:39;34.50;43.10
16347;DHT22;8283;48.504;13.734;2023-05-07T12:11:25;34.40;41.50
16347;DHT22;8283;48.504;13.734;2023-05-07T12:14:09;34.20;41.80
16347;DHT22;8283;48.504;13.734;2023-05-07T12:16:54;34.00;42.30
16347;DHT22;8283;48.504;13.734;2023-05-07T12:19:40;33.80;42.60
16347;DHT22;8283;48.504;13.734;2023-05-07T12:22:25;33.70;43.00
16347;DHT22;8283;48.504;13.734;2023-05-07T12:25:12;33.80;43.40
16347;DHT22;8283;48.504;13.734;2023-05-07T12:28:01;33.80;42.70
16347;DHT22;8283;48.504;13.734;2023-05-07T12:30:48;33.90;42.60
16347;DHT22;8283;48.504;13.734;2023-05-07T12:33:33;33.90;42.20
16347;DHT22;8283;48.504;13.734;2023-05-07T12:36:19;33.90;42.00
16347;DHT22;8283;48.504;13.734;2023-05-07T12:39:06;33.80;41.70
16347;DHT22;8283;48.504;13.734;2023-05-07T12:41:55;33.60;41.70
16347;DHT22;8283;48.504;13.734;2023-05-07T12:44:39;33.50;42.00
16347;DHT22;8283;48.504;13.734;2023-05-07T12:47:24;33.40;42.50
16347;DHT22;8283;48.504;13.734;2023-05-07T12:50:09;33.40;42.40
16347;DHT22;8283;48.504;13.734;2023-05-07T12:52:53;33.50;42.20
16347;DHT22;8283;48.504;13.734;2023-05-07T12:55:47;33.50;41.90
16347;DHT22;8283;48.504;13.734;2023-05-07T12:58:38;33.40;40.70
16347;DHT22;8283;48.504;13.734;2023-05-07T13:01:29;33.20;41.00
16347;DHT22;8283;48.504;13.734;2023-05-07T13:04:13;33.10;41.10
16347;DHT22;8283;48.504;13.734;2023-05-07T13:06:59;33.10;42.20
16347;DHT22;8283;48.504;13.734;2023-05-07T13:09:43;33.10;41.90
16347;DHT22;8283;48.504;13.734;2023-05-07T13:12:28;33.20;42.50
16347;DHT22;8283;48.504;13.734;2023-05-07T13:15:13;33.30;42.50
16347;DHT22;8283;48.504;13.734;2023-05-07T13:17:57;33.50;42.70
16347;DHT22;8283;48.504;13.734;2023-05-07T13:20:41;33.70;42.70
16347;DHT22;8283;48.504;13.734;2023-05-07T13:23:26;33.80;42.60
16347;DHT22;8283;48.504;13.734;2023-05-07T13:26:10;34.10;42.60
16347;DHT22;8283;48.504;13.734;2023-05-07T13:28:55;34.30;42.40
16347;DHT22;8283;48.504;13.734;2023-05-07T13:31:40;34.40;42.10
16347;DHT22;8283;48.504;13.734;2023-05-07T13:34:29;34.60;41.90
16347;DHT22;8283;48.504;13.734;2023-05-07T13:37:14;34.70;41.60
16347;DHT22;8283;48.504;13.734;2023-05-07T13:39:58;34.90;41.40
16347;DHT22;8283;48.504;13.734;2023-05-07T13:42:43;34.90;40.90
16347;DHT22;8283;48.504;13.734;2023-05-07T13:45:29;34.70;40.50
16347;DHT22;8283;48.504;13.734;2023-05-07T13:48:13;34.50;40.80
16347;DHT22;8283;48.504;13.734;2023-05-07T13:50:59;34.10;40.20
16347;DHT22;8283;48.504;13.734;2023-05-07T13:53:44;33.70;40.70
16347;DHT22;8283;48.504;13.734;2023-05-07T13:56:30;33.50;41.00
16347;DHT22;8283;48.504;13.734;2023-05-07T13:59:16;33.30;40.60
16347;DHT22;8283;48.504;13.734;2023-05-07T14:02:01;33.20;40.70
16347;DHT22;8283;48.504;13.734;2023-05-07T14:04:45;33.00;40.70
16347;DHT22;8283;48.504;13.734;2023-05-07T14:07:30;32.80;40.10
16347;DHT22;8283;48.504;13.734;2023-05-07T14:10:14;32.60;40.50
16347;DHT22;8283;48.504;13.734;2023-05-07T14:12:59;32.40;40.40
16347;DHT22;8283;48.504;13.734;2023-05-07T14:15:44;32.30;40.60
16347;DHT22;8283;48.504;13.734;2023-05-07T14:18:33;32.10;40.80
16347;DHT22;8283;48.504;13.734;2023-05-07T14:21:19;32.00;40.90
16347;DHT22;8283;48.504;13.734;2023-05-07T14:24:05;31.90;41.00
16347;DHT22;8283;48.504;13.734;2023-05-07T14:26:50;31.80;41.20
16347;DHT22;8283;48.504;13.734;2023-05-07T14:29:35;31.80;41.20
16347;DHT22;8283;48.504;13.734;2023-05-07T14:32:21;31.70;41.10
16347;DHT22;8283;48.504;13.734;2023-05-07T14:35:05;31.70;41.00
16347;DHT22;8283;48.504;13.734;2023-05-07T14:37:51;31.70;41.50
16347;DHT22;8283;48.504;13.734;2023-05-07T14:40:36;31.80;41.50
16347;DHT22;8283;48.504;13.734;2023-05-07T14:43:20;31.80;41.40
16347;DHT22;8283;48.504;13.734;2023-05-07T14:46:06;31.90;41.30
16347;DHT22;8283;48.504;13.734;2023-05-07T14:48:53;32.00;41.40
16347;DHT22;8283;48.504;13.734;2023-05-07T14:51:37;32.00;40.60
16347;DHT22;8283;48.504;13.734;2023-05-07T14:54:23;32.00;40.40
16347;DHT22;8283;48.504;13.734;2023-05-07T14:57:09;31.90;40.80
16347;DHT22;8283;48.504;13.734;2023-05-07T14:59:54;31.90;41.00
16347;DHT22;8283;48.504;13.734;2023-05-07T15:02:39;31.80;40.40
16347;DHT22;8283;48.504;13.734;2023-05-07T15:05:23;31.60;40.20
16347;DHT22;8283;48.504;13.734;2023-05-07T15:08:09;31.50;40.50
16347;DHT22;8283;48.504;13.734;2023-05-07T15:10:53;31.40;40.70
16347;DHT22;8283;48.504;13.734;2023-05-07T15:13:39;31.30;40.90
16347;DHT22;8283;48.504;13.734;2023-05-07T15:16:23;31.30;41.20
16347;DHT22;8283;48.504;13.734;2023-05-07T15:19:09;31.30;41.10
16347;DHT22;8283;48.504;13.734;2023-05-07T15:21:54;31.40;40.40
16347;DHT22;8283;48.504;13.734;2023-05-07T15:24:40;31.30;40.80
16347;DHT22;8283;48.504;13.734;2023-05-07T15:27:25;31.20;41.10
16347;DHT22;8283;48.504;13.734;2023-05-07T15:30:10;31.10;41.00
16347;DHT22;8283;48.504;13.734;2023-05-07T15:32:54;31.00;41.20
16347;DHT22;8283;48.504;13.734;2023-05-07T15:35:41;31.00;41.20
16347;DHT22;8283;48.504;13.734;2023-05-07T15:38:27;31.00;41.20
16347;DHT22;8283;48.504;13.734;2023-05-07T15:41:11;30.90;41.30
16347;DHT22;8283;48.504;13.734;2023-05-07T15:43:56;30.90;41.50
16347;DHT22;8283;48.504;13.734;2023-05-07T15:46:42;30.90;41.60
16347;DHT22;8283;48.504;13.734;2023-05-07T15:49:27;31.00;41.80
16347;DHT22;8283;48.504;13.734;2023-05-07T15:52:13;30.90;41.30
16347;DHT22;8283;48.504;13.734;2023-05-07T15:54:59;30.80;41.20
16347;DHT22;8283;48.504;13.734;2023-05-07T15:57:43;30.70;41.40
16347;DHT22;8283;48.504;13.734;2023-05-07T16:00:28;30.50;42.00
16347;DHT22;8283;48.504;13.734;2023-05-07T16:03:12;30.50;41.70
16347;DHT22;8283;48.504;13.734;2023-05-07T16:05:57;30.40;41.60
16347;DHT22;8283;48.504;13.734;2023-05-07T16:08:41;30.30;41.80
16347;DHT22;8283;48.504;13.734;2023-05-07T16:11:27;30.20;41.40
16347;DHT22;8283;48.504;13.734;2023-05-07T16:14:18;30.10;41.50
16347;DHT22;8283;48.504;13.734;2023-05-07T16:17:02;29.80;41.40
16347;DHT22;8283;48.504;13.734;2023-05-07T16:19:49;29.50;41.70
16347;DHT22;8283;48.504;13.734;2023-05-07T16:22:34;29.20;42.10
16347;DHT22;8283;48.504;13.734;2023-05-07T16:25:20;28.90;42.10
16347;DHT22;8283;48.504;13.734;2023-05-07T16:28:05;28.60;42.40
16347;DHT22;8283;48.504;13.734;2023-05-07T16:30:53;28.40;42.80
16347;DHT22;8283;48.504;13.734;2023-05-07T16:33:39;28.10;43.10
16347;DHT22;8283;48.504;13.734;2023-05-07T16:36:26;27.90;43.00
16347;DHT22;8283;48.504;13.734;2023-05-07T16:39:12;27.70;43.40
16347;DHT22;8283;48.504;13.734;2023-05-07T16:41:58;27.50;43.70
16347;DHT22;8283;48.504;13.734;2023-05-07T16:44:45;27.20;44.00
16347;DHT22;8283;48.504;13.734;2023-05-07T16:47:31;27.00;44.50
16347;DHT22;8283;48.504;13.734;2023-05-07T16:50:15;26.80;44.20
16347;DHT22;8283;48.504;13.734;2023-05-07T16:53:00;26.60;44.50
16347;DHT22;8283;48.504;13.734;2023-05-07T16:55:45;26.50;44.40
16347;DHT22;8283;48.504;13.734;2023-05-07T16:58:31;26.40;44.50
16347;DHT22;8283;48.504;13.734;2023-05-07T17:01:21;26.30;44.40
16347;DHT22;8283;48.504;13.734;2023-05-07T17:04:07;26.30;44.50
16347;DHT22;8283;48.504;13.734;2023-05-07T17:06:55;26.20;44.20
16347;DHT22;8283;48.504;13.734;2023-05-07T17:09:43;26.20;44.30
16347;DHT22;8283;48.504;13.734;2023-05-07T17:12:27;26.10;44.40
16347;DHT22;8283;48.504;13.734;2023-05-07T17:15:12;26.10;44.60
16347;DHT22;8283;48.504;13.734;2023-05-07T17:17:56;26.00;44.60
16347;DHT22;8283;48.504;13.734;2023-05-07T17:20:42;26.00;45.30
16347;DHT22;8283;48.504;13.734;2023-05-07T17:23:27;25.80;45.20
16347;DHT22;8283;48.504;13.734;2023-05-07T17:26:15;25.60;45.10
16347;DHT22;8283;48.504;13.734;2023-05-07T17:29:00;25.50;45.40
16347;DHT22;8283;48.504;13.734;2023-05-07T17:31:44;25.40;45.40
16347;DHT22;8283;48.504;13.734;2023-05-07T17:34:29;25.30;45.30
16347;DHT22;8283;48.504;13.734;2023-05-07T17:37:17;25.20;45.90
16347;DHT22;8283;48.504;13.734;2023-05-07T17:40:01;25.10;45.60
16347;DHT22;8283;48.504;13.734;2023-05-07T17:42:46;25.10;45.50